createdAt,value
2022-12-03T00:00:57.969Z,13.75
2022-12-03T00:03:26.613Z,15.65
2022-12-03T00:05:54.959Z,16.23
2022-12-03T00:08:23.444Z,15.95
2022-12-03T00:10:52.029Z,18.23
2022-12-03T00:13:20.463Z,16.13
2022-12-03T00:15:49.019Z,15.77
2022-12-03T00:18:17.590Z,15.90
2022-12-03T00:20:46.156Z,15.48
2022-12-03T00:23:14.464Z,16.33
2022-12-03T00:25:43.060Z,17.60
2022-12-03T00:28:11.546Z,17.48
2022-12-03T00:30:39.879Z,16.65
2022-12-03T00:33:08.377Z,16.65
2022-12-03T00:35:36.610Z,15.15
2022-12-03T00:38:04.914Z,15.45
2022-12-03T00:40:33.287Z,15.55
2022-12-03T00:43:01.639Z,15.85
2022-12-03T00:45:29.814Z,15.43
2022-12-03T00:47:58.545Z,14.52
2022-12-03T00:50:26.866Z,13.82
2022-12-03T00:52:55.032Z,13.30
2022-12-03T00:55:23.315Z,12.55
2022-12-03T00:57:51.551Z,13.25
2022-12-03T01:00:20.105Z,12.30
2022-12-03T01:02:48.364Z,11.55
2022-12-03T01:05:16.686Z,11.02
2022-12-03T01:07:45.437Z,11.63
2022-12-03T01:10:14.811Z,9.93
2022-12-03T01:12:43.491Z,10.07
2022-12-03T01:15:12.116Z,10.32
2022-12-03T01:17:40.692Z,9.45
2022-12-03T01:20:10.175Z,9.38
2022-12-03T01:22:38.751Z,9.48
2022-12-03T01:25:07.783Z,9.05
2022-12-03T01:27:36.134Z,9.27
2022-12-03T01:30:05.894Z,8.20
2022-12-03T01:32:34.620Z,8.15
2022-12-03T01:35:02.926Z,7.68
2022-12-03T01:37:31.173Z,8.35
2022-12-03T01:39:59.461Z,9.07
2022-12-03T01:42:37.479Z,9.85
2022-12-03T01:45:06.532Z,10.30
2022-12-03T01:47:37.497Z,8.77
2022-12-03T01:50:30.845Z,9.45
2022-12-03T01:53:02.284Z,9.85
2022-12-03T01:55:31.213Z,8.57
2022-12-03T01:58:01.478Z,8.82
2022-12-03T02:00:30.327Z,9.23
2022-12-03T02:03:06.225Z,8.93
2022-12-03T02:05:35.122Z,9.93
2022-12-03T02:08:23.158Z,10.18
2022-12-03T02:10:52.098Z,9.25
2022-12-03T02:13:20.715Z,9.52
2022-12-03T02:15:49.357Z,8.60
2022-12-03T02:18:18.880Z,9.57
2022-12-03T02:21:08.736Z,8.32
2022-12-03T02:23:43.939Z,7.85
2022-12-03T02:26:12.342Z,7.97
2022-12-03T02:28:40.486Z,7.25
2022-12-03T02:31:08.904Z,6.82
2022-12-03T02:33:37.354Z,6.88
2022-12-03T02:36:05.955Z,7.65
2022-12-03T02:38:36.309Z,7.38
2022-12-03T02:41:11.707Z,6.45
2022-12-03T02:43:40.107Z,6.85
2022-12-03T02:46:09.193Z,6.65
2022-12-03T02:48:40.577Z,6.10
2022-12-03T02:51:11.321Z,6.05
2022-12-03T02:53:43.196Z,6.22
2022-12-03T02:56:15.599Z,8.00
2022-12-03T02:58:46.806Z,7.07
2022-12-03T03:01:15.714Z,7.32
2022-12-03T03:03:46.243Z,6.70
2022-12-03T03:06:16.528Z,7.45
2022-12-03T03:08:45.118Z,7.22
2022-12-03T03:11:13.456Z,7.25
2022-12-03T03:13:41.972Z,7.07
2022-12-03T03:16:10.616Z,7.05
2022-12-03T03:18:39.515Z,7.70
2022-12-03T03:21:07.975Z,6.35
2022-12-03T03:23:36.248Z,7.60
2022-12-03T03:26:07.866Z,7.82
2022-12-03T03:28:39.867Z,7.38
2022-12-03T03:31:10.759Z,6.93
2022-12-03T03:33:41.113Z,8.40
2022-12-03T03:36:09.885Z,8.05
2022-12-03T03:38:39.618Z,7.20
2022-12-03T03:41:09.789Z,8.27
2022-12-03T03:43:39.483Z,7.43
2022-12-03T03:46:08.409Z,7.82
2022-12-03T03:48:36.681Z,7.13
2022-12-03T03:51:06.196Z,8.23
2022-12-03T03:53:34.449Z,8.20
2022-12-03T03:56:02.794Z,7.93
2022-12-03T03:58:31.076Z,8.40
2022-12-03T04:00:59.458Z,8.60
2022-12-03T04:03:29.303Z,8.35
2022-12-03T04:05:57.720Z,6.82
2022-12-03T04:08:25.832Z,8.13
2022-12-03T04:10:54.030Z,8.27
2022-12-03T04:13:22.384Z,8.45
2022-12-03T04:15:50.612Z,7.57
2022-12-03T04:18:18.853Z,7.93
2022-12-03T04:20:46.926Z,7.78
2022-12-03T04:23:15.104Z,9.27
2022-12-03T04:25:43.378Z,8.23
2022-12-03T04:28:11.479Z,8.93
2022-12-03T04:30:40.089Z,9.18
2022-12-03T04:33:08.221Z,9.48
2022-12-03T04:35:36.762Z,8.98
2022-12-03T04:38:05.073Z,8.30
2022-12-03T04:40:33.128Z,9.80
2022-12-03T04:43:01.359Z,9.38
2022-12-03T04:45:29.456Z,9.45
2022-12-03T04:47:57.782Z,9.95
2022-12-03T04:50:26.060Z,11.18
2022-12-03T04:52:54.082Z,10.00
2022-12-03T04:55:22.400Z,10.23
2022-12-03T04:57:50.572Z,11.15
2022-12-03T05:00:19.110Z,11.38
2022-12-03T05:02:47.320Z,11.90
2022-12-03T05:05:15.784Z,12.10
2022-12-03T05:07:44.004Z,12.75
2022-12-03T05:10:12.959Z,11.00
2022-12-03T05:12:41.093Z,10.60
2022-12-03T05:15:09.748Z,10.40
2022-12-03T05:17:38.024Z,11.05
2022-12-03T05:20:06.711Z,9.90
2022-12-03T05:22:35.017Z,9.90
2022-12-03T05:25:03.721Z,10.63
2022-12-03T05:27:31.821Z,9.68
2022-12-03T05:30:00.073Z,9.60
2022-12-03T05:32:28.368Z,9.13
2022-12-03T05:34:56.851Z,9.55
2022-12-03T05:37:25.634Z,10.10
2022-12-03T05:39:53.718Z,10.43
2022-12-03T05:42:21.880Z,10.20
2022-12-03T05:44:50.201Z,9.52
2022-12-03T05:47:18.424Z,11.02
2022-12-03T05:49:46.514Z,9.35
2022-12-03T05:52:14.785Z,10.15
2022-12-03T05:54:42.955Z,9.50
2022-12-03T05:57:11.108Z,9.93
2022-12-03T05:59:39.326Z,9.60
2022-12-03T06:02:07.542Z,9.93
2022-12-03T06:04:35.832Z,9.55
2022-12-03T06:07:03.925Z,9.93
2022-12-03T06:09:32.019Z,10.13
2022-12-03T06:12:00.236Z,9.77
2022-12-03T06:14:28.322Z,10.90
2022-12-03T06:16:56.705Z,11.80
2022-12-03T06:19:24.858Z,11.68
2022-12-03T06:21:52.959Z,11.10
2022-12-03T06:24:21.227Z,12.50
2022-12-03T06:26:49.524Z,11.18
2022-12-03T06:29:17.722Z,11.45
2022-12-03T06:31:45.869Z,12.55
2022-12-03T06:34:14.156Z,11.77
2022-12-03T06:36:42.498Z,11.88
2022-12-03T06:39:10.594Z,11.57
2022-12-03T06:41:39.048Z,11.85
2022-12-03T06:44:07.265Z,10.27
2022-12-03T06:46:35.558Z,11.05
2022-12-03T06:49:04.013Z,11.13
2022-12-03T06:51:32.566Z,11.93
2022-12-03T06:54:00.908Z,10.82
2022-12-03T06:56:35.019Z,11.07
2022-12-03T06:59:05.275Z,11.70
2022-12-03T07:01:33.768Z,11.98
2022-12-03T07:04:01.963Z,16.67
2022-12-03T07:06:30.247Z,13.68
2022-12-03T07:08:58.463Z,13.15
2022-12-03T07:11:26.648Z,11.93
2022-12-03T07:13:56.254Z,12.30
2022-12-03T07:18:56.278Z,10.65
2022-12-03T07:21:24.645Z,14.00
2022-12-03T07:23:53.669Z,9.93
2022-12-03T07:26:21.843Z,11.65
2022-12-03T07:28:50.070Z,13.82
2022-12-03T07:31:18.566Z,11.32
2022-12-03T07:33:47.817Z,11.82
2022-12-03T07:36:16.169Z,12.60
2022-12-03T07:38:44.525Z,11.70
2022-12-03T07:41:12.930Z,9.75
2022-12-03T07:43:41.308Z,10.10
2022-12-03T07:46:09.727Z,9.35
2022-12-03T07:48:37.859Z,9.90
2022-12-03T07:51:06.206Z,9.65
2022-12-03T07:53:34.544Z,10.38
2022-12-03T07:56:06.388Z,11.20
2022-12-03T07:58:34.878Z,11.02
2022-12-03T08:01:03.468Z,10.98
2022-12-03T08:03:32.373Z,11.88
2022-12-03T08:06:00.745Z,13.68
2022-12-03T08:08:29.194Z,12.50
2022-12-03T08:10:58.243Z,11.90
2022-12-03T08:13:28.372Z,12.23
2022-12-03T08:16:00.568Z,12.15
2022-12-03T08:20:57.248Z,12.30
2022-12-03T08:23:26.462Z,12.07
2022-12-03T08:25:54.694Z,13.43
2022-12-03T08:28:25.412Z,12.75
2022-12-03T08:31:32.845Z,13.10
2022-12-03T08:34:23.402Z,12.68
2022-12-03T08:39:55.416Z,11.20
2022-12-03T08:42:32.199Z,13.05
2022-12-03T08:45:29.691Z,12.77
2022-12-03T08:48:21.968Z,13.45
2022-12-03T08:50:50.879Z,12.32
2022-12-03T08:53:32.981Z,10.95
2022-12-03T08:56:14.093Z,11.82
2022-12-03T08:58:48.497Z,11.77
2022-12-03T09:01:31.644Z,12.55
2022-12-03T09:04:26.678Z,10.63
2022-12-03T09:06:55.829Z,11.32
2022-12-03T09:09:25.295Z,11.23
2022-12-03T09:11:55.702Z,11.80
2022-12-03T09:14:24.730Z,9.68
2022-12-03T09:16:54.251Z,9.90
2022-12-03T09:19:27.646Z,9.98
2022-12-03T09:21:59.739Z,11.27
2022-12-03T09:24:29.860Z,10.60
2022-12-03T09:27:02.492Z,11.85
2022-12-03T09:29:31.423Z,10.93
2022-12-03T09:32:00.317Z,10.73
2022-12-03T09:34:29.137Z,10.32
2022-12-03T09:36:57.588Z,9.85
2022-12-03T09:39:26.059Z,9.65
2022-12-03T09:41:56.099Z,7.07
2022-12-03T09:44:24.998Z,6.65
2022-12-03T09:46:53.700Z,6.90
2022-12-03T09:49:22.253Z,6.20
2022-12-03T09:51:50.994Z,6.38
2022-12-03T09:54:28.105Z,5.82
2022-12-03T09:56:59.942Z,5.68
2022-12-03T10:01:59.855Z,4.25
2022-12-03T10:04:31.499Z,3.90
2022-12-03T10:07:00.417Z,3.83
2022-12-03T10:09:30.940Z,4.13
2022-12-03T10:12:00.556Z,4.88
2022-12-03T10:14:29.585Z,4.93
2022-12-03T10:16:58.928Z,5.10
2022-12-03T10:19:30.940Z,4.78
2022-12-03T10:24:33.278Z,4.65
2022-12-03T10:27:31.134Z,3.05
2022-12-03T10:30:02.088Z,2.60
2022-12-03T10:32:46.021Z,3.95
2022-12-03T10:35:23.967Z,3.00
2022-12-03T10:38:04.570Z,2.42
2022-12-03T10:40:40.573Z,2.60
2022-12-03T10:43:20.764Z,2.10
2022-12-03T10:46:04.392Z,2.42
2022-12-03T10:48:33.472Z,2.80
2022-12-03T10:51:08.024Z,2.85
2022-12-03T10:53:38.771Z,2.65
2022-12-03T10:56:13.006Z,6.57
2022-12-03T10:58:43.170Z,6.13
2022-12-03T11:01:21.049Z,5.40
2022-12-03T11:03:50.291Z,3.63
2022-12-03T11:06:21.918Z,3.70
2022-12-03T11:08:59.469Z,3.05
2022-12-03T11:11:31.773Z,3.15
2022-12-03T11:14:03.955Z,2.85
2022-12-03T11:17:01.834Z,3.33
2022-12-03T11:19:45.346Z,6.63
2022-12-03T11:22:13.921Z,5.03
2022-12-03T11:24:42.410Z,2.75
2022-12-03T11:27:10.809Z,3.88
2022-12-03T11:29:51.504Z,3.30
2022-12-03T11:32:44.359Z,3.13
2022-12-03T11:35:25.407Z,3.63
2022-12-03T11:37:54.170Z,3.22
2022-12-03T11:40:22.850Z,3.90
2022-12-03T11:42:51.607Z,4.10
2022-12-03T11:45:30.029Z,3.30
2022-12-03T11:48:12.077Z,2.42
2022-12-03T11:50:51.413Z,2.28
2022-12-03T11:53:28.794Z,2.33
2022-12-03T11:56:07.288Z,2.63
2022-12-03T11:58:39.449Z,1.92
2022-12-03T12:01:09.390Z,2.08
2022-12-03T12:03:47.672Z,2.50
2022-12-03T12:06:22.352Z,2.03
2022-12-03T12:08:53.969Z,2.33
2022-12-03T12:11:32.340Z,2.60
2022-12-03T12:14:10.810Z,2.08
2022-12-03T12:16:42.218Z,2.28
2022-12-03T12:19:49.743Z,2.03
2022-12-03T12:22:31.728Z,3.45
2022-12-03T12:25:05.992Z,2.40
2022-12-03T12:27:42.083Z,3.13
2022-12-03T12:30:19.264Z,3.13
2022-12-03T12:33:01.465Z,2.42
2022-12-03T12:35:33.083Z,2.35
2022-12-03T12:38:15.782Z,2.03
2022-12-03T12:40:54.288Z,1.85
2022-12-03T12:43:28.688Z,1.80
2022-12-03T12:46:45.434Z,2.60
2022-12-03T12:49:00.827Z,1.63
2022-12-03T12:51:29.496Z,1.58
2022-12-03T12:53:58.602Z,2.38
2022-12-03T12:56:31.083Z,3.25
2022-12-03T12:59:11.820Z,3.47
2022-12-03T13:01:41.585Z,2.08
2022-12-03T13:04:19.458Z,1.52
2022-12-03T13:06:50.095Z,1.70
2022-12-03T13:09:21.855Z,2.22
2022-12-03T13:12:01.551Z,1.48
2022-12-03T13:14:39.571Z,1.50
2022-12-03T13:17:20.491Z,2.13
2022-12-03T13:19:55.872Z,1.80
2022-12-03T13:22:29.522Z,1.90
2022-12-03T13:24:58.256Z,1.77
2022-12-03T13:27:29.806Z,1.88
2022-12-03T13:30:07.751Z,2.35
2022-12-03T13:32:42.159Z,3.25
2022-12-03T13:35:35.852Z,2.38
2022-12-03T13:38:16.204Z,2.70
2022-12-03T13:40:45.177Z,2.30
2022-12-03T13:43:16.875Z,2.65
2022-12-03T13:45:47.623Z,1.67
2022-12-03T13:48:28.273Z,2.35
2022-12-03T13:50:57.379Z,2.28
2022-12-03T13:56:29.963Z,3.13
2022-12-03T13:59:00.538Z,2.88
2022-12-03T14:01:29.964Z,2.40
2022-12-03T14:04:02.333Z,1.70
2022-12-03T14:06:31.348Z,2.13
2022-12-03T14:09:00.166Z,1.98
2022-12-03T14:11:28.522Z,2.97
2022-12-03T14:13:56.996Z,2.17
2022-12-03T14:16:25.733Z,2.47
2022-12-03T14:18:54.275Z,3.03
2022-12-03T14:21:22.913Z,1.80
2022-12-03T14:23:55.852Z,1.48
2022-12-03T14:26:26.538Z,1.77
2022-12-03T14:28:55.597Z,1.10
2022-12-03T14:31:24.083Z,2.65
2022-12-03T14:33:53.152Z,1.92
2022-12-03T14:36:22.612Z,2.90
2022-12-03T14:38:51.705Z,1.30
2022-12-03T14:41:20.225Z,2.03
2022-12-03T14:43:49.148Z,1.95
2022-12-03T14:46:20.457Z,3.30
2022-12-03T14:48:49.013Z,3.20
2022-12-03T14:51:18.435Z,3.70
2022-12-03T14:53:50.326Z,4.03
2022-12-03T14:56:20.953Z,2.10
2022-12-03T14:58:53.748Z,1.35
2022-12-03T15:01:22.508Z,1.70
2022-12-03T15:03:51.413Z,1.90
2022-12-03T15:06:20.340Z,2.42
2022-12-03T15:08:50.162Z,1.50
2022-12-03T15:11:30.387Z,1.27
2022-12-03T15:13:59.453Z,1.80
2022-12-03T15:16:30.314Z,2.53
2022-12-03T15:19:00.560Z,1.13
2022-12-03T15:21:33.478Z,1.90
2022-12-03T15:24:06.477Z,1.50
2022-12-03T15:26:35.864Z,2.03
2022-12-03T15:29:07.725Z,1.88
2022-12-03T15:31:38.388Z,1.60
2022-12-03T15:36:52.434Z,2.33
2022-12-03T15:39:21.152Z,2.30
2022-12-03T15:41:51.069Z,1.75
2022-12-03T15:44:19.924Z,1.52
2022-12-03T15:46:48.145Z,2.22
2022-12-03T15:49:16.698Z,1.48
2022-12-03T15:51:45.709Z,2.97
2022-12-03T15:54:14.017Z,1.95
2022-12-03T15:56:42.983Z,2.00
2022-12-03T15:59:13.095Z,1.30
2022-12-03T16:01:41.778Z,1.98
2022-12-03T16:04:19.198Z,2.70
2022-12-03T16:06:51.239Z,1.73
2022-12-03T16:09:25.311Z,1.45
2022-12-03T16:11:58.509Z,1.17
2022-12-03T16:14:26.815Z,1.92
2022-12-03T16:16:55.533Z,1.95
2022-12-03T16:19:23.770Z,1.35
2022-12-03T16:21:52.442Z,1.45
2022-12-03T16:24:20.882Z,0.88
2022-12-03T16:26:49.283Z,1.42
2022-12-03T16:29:19.728Z,1.30
2022-12-03T16:31:48.267Z,1.00
2022-12-03T16:34:16.620Z,2.35
2022-12-03T16:36:44.982Z,2.58
2022-12-03T16:39:14.248Z,1.85
2022-12-03T16:41:42.976Z,2.35
2022-12-03T16:44:11.493Z,3.05
2022-12-03T16:46:43.114Z,3.35
2022-12-03T16:49:12.132Z,4.00
2022-12-03T16:51:40.363Z,4.57
2022-12-03T16:54:08.924Z,5.65
2022-12-03T16:56:37.532Z,5.15
2022-12-03T16:59:06.051Z,6.78
2022-12-03T17:01:34.609Z,6.60
2022-12-03T17:04:03.121Z,5.35
2022-12-03T17:06:31.907Z,4.28
2022-12-03T17:09:00.204Z,4.32
2022-12-03T17:11:28.825Z,1.75
2022-12-03T17:13:57.309Z,2.28
2022-12-03T17:16:44.357Z,6.53
2022-12-03T17:19:13.102Z,3.10
2022-12-03T17:21:42.020Z,4.85
2022-12-03T17:24:10.615Z,4.63
2022-12-03T17:26:46.296Z,2.38
2022-12-03T17:29:15.091Z,1.08
2022-12-03T17:31:43.566Z,0.90
2022-12-03T17:34:12.139Z,1.30
2022-12-03T17:36:40.548Z,1.48
2022-12-03T17:39:08.917Z,2.70
2022-12-03T17:41:37.220Z,2.70
2022-12-03T17:44:10.128Z,3.65
2022-12-03T17:46:40.180Z,2.88
2022-12-03T17:49:08.992Z,5.70
2022-12-03T17:51:37.574Z,3.35
2022-12-03T17:54:06.303Z,3.45
2022-12-03T17:56:34.915Z,1.70
2022-12-03T17:59:06.074Z,1.42
2022-12-03T18:01:34.783Z,3.50
2022-12-03T18:04:03.585Z,2.55
2022-12-03T18:06:32.687Z,2.70
2022-12-03T18:09:06.144Z,1.77
2022-12-03T18:11:35.716Z,3.10
2022-12-03T18:14:05.614Z,2.78
2022-12-03T18:16:34.210Z,2.20
2022-12-03T18:19:06.279Z,2.78
2022-12-03T18:21:35.656Z,3.47
2022-12-03T18:24:04.642Z,6.55
2022-12-03T18:26:33.330Z,6.00
2022-12-03T18:29:02.699Z,5.50
2022-12-03T18:31:33.476Z,5.40
2022-12-03T18:34:02.123Z,5.22
2022-12-03T18:36:35.078Z,5.70
2022-12-03T18:39:07.512Z,11.45
2022-12-03T18:41:36.827Z,7.45
2022-12-03T18:44:10.683Z,7.35
2022-12-03T18:46:53.669Z,13.30
2022-12-03T18:49:23.206Z,12.68
2022-12-03T18:51:57.486Z,10.20
2022-12-03T18:54:28.010Z,9.30
2022-12-03T18:56:56.893Z,7.20
2022-12-03T18:59:25.305Z,7.25
2022-12-03T19:01:53.786Z,7.28
2022-12-03T19:04:22.169Z,7.85
2022-12-03T19:06:50.550Z,8.30
2022-12-03T19:09:19.209Z,10.75
2022-12-03T19:11:47.782Z,12.48
2022-12-03T19:14:16.177Z,17.77
2022-12-03T19:16:44.770Z,15.73
2022-12-03T19:19:13.164Z,11.90
2022-12-03T19:21:41.454Z,11.15
2022-12-03T19:24:24.268Z,11.38
2022-12-03T19:26:53.450Z,10.70
2022-12-03T19:29:25.616Z,11.45
2022-12-03T19:31:54.100Z,14.50
2022-12-03T19:34:22.397Z,15.20
2022-12-03T19:36:50.895Z,16.77
2022-12-03T19:39:19.499Z,14.77
2022-12-03T19:41:47.920Z,13.18
2022-12-03T19:44:18.429Z,10.75
2022-12-03T19:46:46.885Z,11.65
2022-12-03T19:49:15.016Z,13.00
2022-12-03T19:51:43.335Z,10.60
2022-12-03T19:54:12.798Z,9.65
2022-12-03T19:56:41.301Z,8.02
2022-12-03T19:59:11.754Z,9.00
2022-12-03T20:01:41.041Z,9.43
2022-12-03T20:04:09.790Z,11.93
2022-12-03T20:06:38.183Z,9.77
2022-12-03T20:09:10.783Z,12.02
2022-12-03T20:11:40.189Z,12.70
2022-12-03T20:14:12.320Z,15.60
2022-12-03T20:16:40.955Z,15.48
2022-12-03T20:19:13.040Z,15.50
2022-12-03T20:24:14.318Z,13.07
2022-12-03T20:26:43.172Z,12.95
2022-12-03T20:29:11.604Z,11.18
2022-12-03T20:31:40.121Z,10.82
2022-12-03T20:34:08.634Z,9.43
2022-12-03T20:36:37.082Z,9.07
2022-12-03T20:39:07.373Z,10.00
2022-12-03T20:41:37.351Z,12.35
2022-12-03T20:44:06.973Z,10.57
2022-12-03T20:46:35.650Z,10.55
2022-12-03T20:49:04.262Z,12.48
2022-12-03T20:51:33.039Z,12.70
2022-12-03T20:54:02.017Z,12.35
2022-12-03T20:56:33.660Z,15.45
2022-12-03T20:59:06.642Z,18.67
2022-12-03T21:01:35.624Z,17.35
2022-12-03T21:04:04.220Z,16.35
2022-12-03T21:06:34.129Z,15.05
2022-12-03T21:09:04.401Z,15.07
2022-12-03T21:11:34.542Z,13.75
2022-12-03T21:14:03.902Z,13.10
2022-12-03T21:17:05.912Z,14.52
2022-12-03T21:19:23.482Z,13.50
2022-12-03T21:21:51.875Z,18.52
2022-12-03T21:24:20.486Z,20.13
2022-12-03T21:26:49.109Z,20.85
2022-12-03T21:29:18.163Z,21.38
2022-12-03T21:31:46.667Z,22.20
2022-12-03T21:34:15.181Z,20.42
2022-12-03T21:36:43.669Z,20.38
2022-12-03T21:39:11.895Z,18.77
2022-12-03T21:41:40.263Z,18.90
2022-12-03T21:44:28.710Z,17.27
2022-12-03T21:47:12.690Z,15.40
2022-12-03T21:49:43.107Z,14.38
2022-12-03T21:52:11.536Z,11.48
2022-12-03T21:54:39.941Z,11.43
2022-12-03T21:57:08.260Z,13.02
2022-12-03T21:59:36.774Z,14.18
2022-12-03T22:02:05.589Z,18.27
2022-12-03T22:04:33.934Z,18.70
2022-12-03T22:07:02.773Z,15.88
2022-12-03T22:09:33.821Z,19.33
2022-12-03T22:12:02.195Z,19.80
2022-12-03T22:14:31.122Z,20.83
2022-12-03T22:16:59.697Z,19.13
2022-12-03T22:19:28.206Z,16.88
2022-12-03T22:21:56.653Z,10.70
2022-12-03T22:24:25.007Z,8.70
2022-12-03T22:26:53.317Z,7.57
2022-12-03T22:29:22.121Z,7.60
2022-12-03T22:31:51.094Z,8.05
2022-12-03T22:34:19.357Z,8.23
2022-12-03T22:36:47.831Z,9.65
2022-12-03T22:39:19.940Z,10.65
2022-12-03T22:41:48.725Z,12.30
2022-12-03T22:44:17.520Z,12.98
2022-12-03T22:46:45.901Z,12.30
2022-12-03T22:49:14.800Z,11.77
2022-12-03T22:51:48.052Z,10.55
2022-12-03T22:54:22.414Z,10.80
2022-12-03T22:56:54.604Z,9.75
2022-12-03T22:59:24.709Z,7.30
2022-12-03T23:01:53.576Z,5.90
2022-12-03T23:04:28.722Z,4.85
2022-12-03T23:06:57.819Z,5.65
2022-12-03T23:09:26.985Z,5.25
2022-12-03T23:14:38.790Z,5.53
2022-12-03T23:17:07.379Z,5.65
2022-12-03T23:19:37.417Z,5.10
2022-12-03T23:22:06.023Z,5.72
2022-12-03T23:24:34.381Z,5.03
2022-12-03T23:27:02.470Z,6.43
2022-12-03T23:29:34.864Z,6.43
2022-12-03T23:32:03.436Z,6.88
2022-12-03T23:34:32.032Z,6.05
2022-12-03T23:37:00.336Z,6.82
2022-12-03T23:39:28.681Z,6.57
2022-12-03T23:41:57.055Z,7.30
2022-12-03T23:44:25.369Z,7.25
2022-12-03T23:46:53.808Z,6.38
2022-12-03T23:49:23.065Z,7.07
2022-12-03T23:51:51.491Z,6.47
2022-12-03T23:54:19.803Z,5.97
2022-12-03T23:56:48.261Z,6.90
2022-12-03T23:59:16.608Z,6.53
